Map

Track Data

SID SEASON NUMBER BASIN SUBBASIN NAME ISO_TIME NATURE LAT LON WMO_WIND WMO_PRES WMO_AGENCY TRACK_TYPE DIST2LAND LANDFALL IFLAG USA_AGENCY USA_ATCF_ID USA_LAT USA_LON USA_RECORD USA_STATUS USA_WIND USA_PRES USA_SSHS USA_R34_NE USA_R34_SE USA_R34_SW USA_R34_NW USA_R50_NE USA_R50_SE USA_R50_SW USA_R50_NW USA_R64_NE USA_R64_SE USA_R64_SW USA_R64_NW USA_POCI USA_ROCI USA_RMW USA_EYE TOKYO_LAT TOKYO_LON TOKYO_GRADE TOKYO_WIND TOKYO_PRES TOKYO_R50_DIR TOKYO_R50_LONG TOKYO_R50_SHORT TOKYO_R30_DIR TOKYO_R30_LONG TOKYO_R30_SHORT TOKYO_LAND CMA_LAT CMA_LON CMA_CAT CMA_WIND CMA_PRES HKO_LAT HKO_LON HKO_CAT HKO_WIND HKO_PRES NEWDELHI_LAT NEWDELHI_LON NEWDELHI_GRADE NEWDELHI_WIND NEWDELHI_PRES NEWDELHI_CI NEWDELHI_DP NEWDELHI_POCI REUNION_LAT REUNION_LON REUNION_TYPE REUNION_WIND REUNION_PRES REUNION_TNUM REUNION_CI REUNION_RMW REUNION_R34_NE REUNION_R34_SE REUNION_R34_SW REUNION_R34_NW REUNION_R50_NE REUNION_R50_SE REUNION_R50_SW REUNION_R50_NW REUNION_R64_NE REUNION_R64_SE REUNION_R64_SW REUNION_R64_NW BOM_LAT BOM_LON BOM_TYPE BOM_WIND BOM_PRES BOM_TNUM BOM_CI BOM_RMW BOM_R34_NE BOM_R34_SE BOM_R34_SW BOM_R34_NW BOM_R50_NE BOM_R50_SE BOM_R50_SW BOM_R50_NW BOM_R64_NE BOM_R64_SE BOM_R64_SW BOM_R64_NW BOM_ROCI BOM_POCI BOM_EYE BOM_POS_METHOD BOM_PRES_METHOD NADI_LAT NADI_LON NADI_CAT NADI_WIND NADI_PRES WELLINGTON_LAT WELLINGTON_LON WELLINGTON_WIND WELLINGTON_PRES DS824_LAT DS824_LON DS824_STAGE DS824_WIND DS824_PRES TD9636_LAT TD9636_LON TD9636_STAGE TD9636_WIND TD9636_PRES TD9635_LAT TD9635_LON TD9635_WIND TD9635_PRES TD9635_ROCI NEUMANN_LAT NEUMANN_LON NEUMANN_CLASS NEUMANN_WIND NEUMANN_PRES MLC_LAT MLC_LON MLC_CLASS MLC_WIND MLC_PRES USA_GUST BOM_GUST BOM_GUST_PER REUNION_GUST REUNION_GUST_PER USA_SEAHGT USA_SEARAD_NE USA_SEARAD_SE USA_SEARAD_SW USA_SEARAD_NW STORM_SPEED STORM_DIR
1993053S12161 1993 15 SP MM POLLY 1993-02-22 06:00:00 TS -11.5000 161.200 main 102 102 O___________O_ jtwc_sh SH211993 -11.5000 161.200 20 -1 -11.5000 161.200 TC 20 7 261
1993053S12161 1993 15 SP MM POLLY 1993-02-22 09:00:00 TS -11.5526 160.853 main 129 129 P___________P_ SH211993 -11.5526 160.853 20 -1 -11.5526 160.853 TC 20 7 262
1993053S12161 1993 15 SP MM POLLY 1993-02-22 12:00:00 TS -11.6000 160.500 main 156 156 O___________O_ jtwc_sh SH211993 -11.6000 160.500 20 -1 -11.6000 160.500 TC 20 7 263
1993053S12161 1993 15 SP MM POLLY 1993-02-22 15:00:00 TS -11.6425 160.142 main 189 189 P___________P_ SH211993 -11.6425 160.142 20 -1 -11.6425 160.142 TC 20 7 262
1993053S12161 1993 15 SP EA POLLY 1993-02-22 18:00:00 TS -11.7000 159.800 main 212 212 O___________O_ jtwc_sh SH211993 -11.7000 159.800 20 -1 -11.7000 159.800 TC 20 7 258
1993053S12161 1993 15 SP EA POLLY 1993-02-22 21:00:00 TS -11.7850 159.485 main 226 226 P___________P_ SH211993 -11.7850 159.485 20 -1 -11.7850 159.485 TC 20 6 251
1993053S12161 1993 15 SP EA POLLY 1993-02-23 00:00:00 TS -11.9000 159.200 main 244 244 O___________O_ jtwc_sh SH211993 -11.9000 159.200 20 -1 -11.9000 159.200 TC 20 6 245
1993053S12161 1993 15 SP EA POLLY 1993-02-23 03:00:00 TS -12.0350 158.935 main 265 265 P___________P_ SH211993 -12.0350 158.935 22 -1 -12.0350 158.935 TC 22 6 238
1993053S12161 1993 15 SP EA POLLY 1993-02-23 06:00:00 TS -12.2000 158.700 main 294 294 O___________O_ jtwc_sh SH211993 -12.2000 158.700 25 -1 -12.2000 158.700 TC 25 6 232
1993053S12161 1993 15 SP EA POLLY 1993-02-23 09:00:00 TS -12.3850 158.485 main 323 323 P___________P_ SH211993 -12.3850 158.485 25 -1 -12.3850 158.485 TC 25 6 224
1993053S12161 1993 15 SP EA POLLY 1993-02-23 12:00:00 TS -12.6000 158.300 main 353 353 O___________O_ jtwc_sh SH211993 -12.6000 158.300 25 -1 -12.6000 158.300 TC 25 6 217
1993053S12161 1993 15 SP EA POLLY 1993-02-23 15:00:00 TS -12.8425 158.128 main 383 383 P___________P_ SH211993 -12.8425 158.128 25 -1 -12.8425 158.128 TC 25 6 210
1993053S12161 1993 15 SP EA POLLY 1993-02-23 18:00:00 TS -13.1000 158.000 main 418 418 O___________O_ jtwc_sh SH211993 -13.1000 158.000 25 -1 -13.1000 158.000 TC 25 5 200
1993053S12161 1993 15 SP EA POLLY 1993-02-23 21:00:00 TS -13.3500 157.935 main 443 443 P___________P_ SH211993 -13.3500 157.935 25 -1 -13.3500 157.935 TC 25 5 191
1993053S12161 1993 15 SP EA POLLY 1993-02-24 00:00:00 TS -13.6000 157.900 main 473 473 O___________O_ jtwc_sh SH211993 -13.6000 157.900 25 -1 -13.6000 157.900 TC 25 5 189
1993053S12161 1993 15 SP EA POLLY 1993-02-24 03:00:00 TS -13.8425 157.850 main 498 498 P___________P_ SH211993 -13.8425 157.850 25 -1 -13.8425 157.850 TC 25 5 191
1993053S12161 1993 15 SP EA POLLY 1993-02-24 06:00:00 TS -14.1000 157.800 main 528 528 O___________O_ jtwc_sh SH211993 -14.1000 157.800 25 -1 -14.1000 157.800 TC 25 6 192
1993053S12161 1993 15 SP EA POLLY 1993-02-24 09:00:00 TS -14.4000 157.735 main 563 563 P___________P_ SH211993 -14.4000 157.735 27 -1 -14.4000 157.735 TC 27 6 189
1993053S12161 1993 15 SP EA POLLY 1993-02-24 12:00:00 TS -14.7000 157.700 30 998 bom main 594 594 O_____O_____O_ jtwc_sh SH211993 -14.7000 157.700 30 -1 -14.7000 157.700 20 30 998 2.50000 3 -14.7000 157.700 TC 30 45 45 6 178
1993053S12161 1993 15 SP EA POLLY 1993-02-24 15:00:00 TS -14.9565 157.736 main 625 621 P_____P_____P_ SH211993 -14.9500 157.735 30 -1 -14.9825 157.740 20 30 997 -14.9500 157.735 TC 30 5 169
1993053S12161 1993 15 SP EA POLLY 1993-02-24 18:00:00 TS -15.2273 157.800 30 996 bom main 642 642 O_____O_____O_ jtwc_sh SH211993 -15.2000 157.800 30 -1 -15.3000 157.800 20 30 996 2.50000 3 -15.2000 157.800 TC 30 45 45 6 168
1993053S12161 1993 15 SP EA POLLY 1993-02-24 21:00:00 TS -15.5550 157.864 main 681 681 P_____P_____P_ SH211993 -15.5000 157.850 32 -1 -15.6650 157.892 20 32 995 -15.5000 157.850 TC 32 7 168
1993053S12161 1993 15 SP EA POLLY 1993-02-25 00:00:00 TS -15.8857 157.943 35 995 bom main 709 703 O_____O_O___O_ jtwc_sh SH211993 -15.8000 157.900 35 0 -16.0000 158.000 21 35 995 3.00000 457 3 -16.0000 158.000 1000 -16.0000 158.000 30 997 -15.8000 157.900 TC 35 49 49 6 165
1993053S12161 1993 15 SP EA POLLY 1993-02-25 03:00:00 TS -16.1406 158.023 main 721 721 P_____PIP___P_ SH211993 -16.0575 157.943 37 0 -16.2225 158.093 21 37 995 457 -16.2475 158.112 997 -16.2025 158.112 35 993 -16.0575 157.943 TC 37 5 161
1993053S12161 1993 15 SP EA POLLY 1993-02-25 06:00:00 TS -16.3556 158.111 40 995 bom main 743 737 O_____O_O___O_ jtwc_sh SH211993 -16.3000 158.000 40 0 -16.4000 158.200 21 40 995 3.00000 457 3 -16.4000 158.200 995 -16.4000 158.200 40 990 -16.3000 158.000 TC 40 55 55 4 156
1993053S12161 1993 15 SP EA POLLY 1993-02-25 09:00:00 TS -16.5425 158.206 main 745 723 P_____PIP___P_ SH211993 -16.5575 158.092 42 0 -16.5850 158.343 21 40 992 416 -16.4200 158.250 993 -16.5925 158.250 42 988 -16.5575 158.092 TC 42 4 155
1993053S12161 1993 15 SP EA POLLY 1993-02-25 12:00:00 TS -16.7400 158.300 40 990 bom main 723 695 O_____O_O___O_ jtwc_sh SH211993 -16.8000 158.200 45 0 -16.8000 158.500 21 40 990 3.00000 376 3 -16.5000 158.300 992 -16.8000 158.300 45 987 -16.8000 158.200 TC 45 55 55 5 158
1993053S12161 1993 15 SP EA POLLY 1993-02-25 15:00:00 TS -17.0160 158.407 main 695 669 P_____PIP___P_ SH211993 -17.0150 158.300 50 0 -17.1075 158.665 21 47 985 416 -16.8850 158.377 986 -17.0575 158.392 47 986 -17.0150 158.300 TC 50 6 159
1993053S12161 1993 15 SP EA POLLY 1993-02-25 18:00:00 TS -17.2800 158.520 55 980 bom main 669 654 O_____O_O___O_ jtwc_sh SH211993 -17.2000 158.400 55 0 -17.4000 158.800 21 55 980 4.00000 457 3 -17.3000 158.500 980 -17.3000 158.500 50 985 -17.2000 158.400 TC 55 75 75 5 153
1993053S12161 1993 15 SP EA POLLY 1993-02-25 21:00:00 TS -17.4465 158.635 main 654 633 P_____PIP___P_ SH211993 -17.3575 158.500 57 0 -17.5650 158.865 21 57 977 457 -17.4801 158.708 980 -17.4725 158.600 52 982 -17.3575 158.500 TC 57 4 145
1993053S12161 1993 15 SP EA POLLY 1993-02-26 00:00:00 TS -17.5800 158.740 60 975 bom main 633 619 O_____O_O___O_ jtwc_sh SH211993 -17.5000 158.600 60 0 -17.7000 158.900 21 60 975 4.00000 457 3 -17.6000 158.900 980 -17.6000 158.700 55 980 -17.5000 158.600 TC 60 84 84 4 149
1993053S12161 1993 15 SP EA POLLY 1993-02-26 03:00:00 TS -17.7520 158.825 main 613 599 P_____PIP___P_ SH211993 -17.6575 158.693 62 0 -17.9225 158.950 21 62 972 443 -17.8150 158.980 975 -17.7075 158.808 60 975 -17.6575 158.693 TC 62 4 155
1993053S12161 1993 15 SP EA POLLY 1993-02-26 06:00:00 TS -17.9000 158.900 65 970 bom main 599 584 O_____O_O___O_ jtwc_sh SH211993 -17.8000 158.800 65 1 -18.1000 159.000 40 65 970 4.50000 430 4 -18.0000 159.000 970 -17.8000 158.900 65 970 -17.8000 158.800 TC 65 89 89 3 148
1993053S12161 1993 15 SP EA POLLY 1993-02-26 09:00:00 TS -17.9865 158.980 main 584 575 P_____PIP___P_ SH211993 -17.9150 158.950 67 1 -18.1225 159.050 40 67 967 430 -18.0725 159.000 970 -17.9075 158.950 65 970 -17.9150 158.950 TC 67 2 132
1993053S12161 1993 15 SP EA POLLY 1993-02-26 12:00:00 TS -18.0400 159.060 70 965 bom main 575 570 O_____O_O___O_ jtwc_sh SH211993 -18.0000 159.100 70 1 -18.1000 159.100 40 70 965 4.50000 430 4 -18.1000 159.000 970 -18.0000 159.000 65 970 -18.0000 159.100 TC 70 99 99 2 126
1993053S12161 1993 15 SP EA POLLY 1993-02-26 15:00:00 TS -18.0900 159.131 main 570 560 P_____PIP___P_ SH211993 -18.0575 159.200 70 1 -18.1425 159.135 40 75 962 403 -18.1425 159.028 967 -18.0500 159.093 67 967 -18.0575 159.200 TC 70 2 123
1993053S12161 1993 15 SP EA POLLY 1993-02-26 18:00:00 TS -18.1400 159.220 80 960 bom main 560 546 O_____O_O___O_ jtwc_sh SH211993 -18.1000 159.300 70 1 -18.2000 159.200 40 80 960 5.00000 376 4 -18.2000 159.100 965 -18.1000 159.200 70 965 -18.1000 159.300 TC 70 110 110 2 121
1993053S12161 1993 15 SP EA POLLY 1993-02-26 21:00:00 TS -18.2145 159.351 main 536 522 P_____PIP___P_ SH211993 -18.1575 159.442 72 1 -18.2501 159.357 40 80 960 349 -18.3075 159.220 965 -18.2000 159.292 70 965 -18.1575 159.442 TC 72 3 116
1993053S12161 1993 15 SP EA POLLY 1993-02-27 00:00:00 TS -18.2737 159.505 80 960 bom main 522 513 O_____O_O___O_ jtwc_sh SH211993 -18.2000 159.600 75 1 -18.3000 159.500 40 80 960 5.00000 322 4 -18.4000 159.400 965 -18.3000 159.400 70 965 -18.2000 159.600 TC 75 110 110 3 107
1993053S12161 1993 15 SP EA POLLY 1993-02-27 03:00:00 TS -18.2964 159.637 main 513 494 P_____PIP___P_ SH211993 -18.2000 159.758 77 1 -18.3575 159.493 40 80 960 322 -18.4226 159.635 962 -18.3650 159.542 72 962 -18.2000 159.758 TC 77 2 98
1993053S12161 1993 15 SP EA POLLY 1993-02-27 06:00:00 TS -18.3059 159.759 80 960 bom main 494 484 O_____O_O___O_ jtwc_sh SH211993 -18.2000 159.900 80 1 -18.4000 159.500 40 80 960 5.00000 322 4 -18.4000 159.900 960 -18.4000 159.700 75 960 -18.2000 159.900 TC 80 110 110 2 96
1993053S12161 1993 15 SP EA POLLY 1993-02-27 09:00:00 TS -18.3231 159.895 main 484 475 P_____P_P___P_ SH211993 -18.2425 160.007 82 1 -18.4076 159.685 40 80 957 322 -18.4000 159.880 75 960 -18.2425 160.007 TC 82 3 100
1993053S12161 1993 15 SP MM POLLY 1993-02-27 12:00:00 TS -18.3500 160.025 80 955 bom main 475 461 O_____O_O___O_ jtwc_sh SH211993 -18.3000 160.100 85 2 -18.4000 159.900 40 80 955 5.00000 322 4 -18.4000 160.000 75 960 -18.3000 160.100 TC 85 110 110 2 105
1993053S12161 1993 15 SP MM POLLY 1993-02-27 15:00:00 TS -18.3781 160.108 main 461 461 P_____P_P___P_ SH211993 -18.3425 160.215 87 2 -18.3850 160.030 40 80 955 322 -18.4425 159.973 75 960 -18.3425 160.215 TC 87 1 122
1993053S12161 1993 15 SP MM POLLY 1993-02-27 18:00:00 TS -18.4250 160.150 main 451 446 O_____O_O___O_ jtwc_sh SH211993 -18.4000 160.300 90 2 -18.4000 160.100 40 80 955 5.00000 322 4 -18.5000 159.900 75 960 -18.4000 160.300 TC 90 110 110 1 150
1993053S12161 1993 15 SP MM POLLY 1993-02-27 21:00:00 TS -18.4806 160.167 main 446 441 P_____P_P___P_ SH211993 -18.4700 160.330 92 2 -18.4625 160.122 40 80 955 322 -18.5200 159.885 75 960 -18.4700 160.330 TC 92 2 172
1993053S12161 1993 15 SP MM POLLY 1993-02-28 00:00:00 TS -18.6000 160.150 main 441 441 O_____O_O___O_ jtwc_sh SH211993 -18.6000 160.300 95 2 -18.6000 160.100 40 80 955 5.00000 322 4 -18.6000 159.900 75 960 -18.6000 160.300 TC 95 110 110 4 190
1993053S12161 1993 15 SP MM POLLY 1993-02-28 03:00:00 TS -18.8313 160.106 main 441 429 P_____P_P___P_ SH211993 -18.8350 160.215 97 3 -18.8425 160.050 40 80 955 322 -18.8125 159.942 75 960 -18.8350 160.215 TC 97 5 191
1993053S12161 1993 15 SP MM POLLY 1993-02-28 06:00:00 TS -19.1000 160.050 80 955 bom main 429 429 O_____O_O___O_ jtwc_sh SH211993 -19.1000 160.100 100 3 -19.1000 160.000 40 80 955 5.00000 322 4 -19.1000 160.000 75 960 -19.1000 160.100 TC 100 110 110 5 191
1993053S12161 1993 15 SP MM POLLY 1993-02-28 09:00:00 TS -19.3125 160.003 main 433 427 P_____P_P___P_ SH211993 -19.2925 159.985 100 3 -19.2575 159.985 40 80 957 -19.4075 160.057 75 960 -19.2925 159.985 TC 100 4 189
1993053S12161 1993 15 SP EA POLLY 1993-02-28 12:00:00 TS -19.5250 159.975 80 960 bom main 427 423 O_____O_O___O_ jtwc_sh SH211993 -19.5000 159.900 100 3 -19.4000 160.000 40 80 960 5.00000 4 -19.7000 160.100 75 960 -19.5000 159.900 TC 100 110 110 4 186
1993053S12161 1993 15 SP EA POLLY 1993-02-28 15:00:00 TS -19.7562 159.963 main 421 418 P_____P_P___P_ SH211993 -19.7775 159.855 100 3 -19.5625 160.043 40 80 960 -19.9075 160.100 77 957 -19.7775 159.855 TC 100 5 178
1993053S12161 1993 15 SP MM POLLY 1993-02-28 18:00:00 TS -20.0250 160.000 main 418 406 O_____O_O___O_ jtwc_sh SH211993 -20.1000 159.900 100 3 -19.8000 160.100 40 80 960 5.00000 4 -20.1000 160.100 80 955 -20.1000 159.900 TC 100 110 110 6 170
1993053S12161 1993 15 SP MM POLLY 1993-02-28 21:00:00 TS -20.3418 160.076 main 406 396 P_____P_P___P_ SH211993 -20.4424 160.048 97 3 -20.1849 160.113 40 82 957 -20.2974 160.098 82 950 -20.4424 160.048 TC 97 7 161
1993053S12161 1993 15 SP MM POLLY 1993-03-01 00:00:00 TS -20.7000 160.250 main 387 372 O_____O_O___O_ jtwc_sh SH211993 -20.8000 160.300 95 2 -20.6000 160.200 40 85 955 5.00000 4 -20.6000 160.200 85 945 -20.8000 160.300 TC 95 119 119 8 151
1993053S12161 1993 15 SP MM POLLY 1993-03-01 03:00:00 TS -21.0760 160.511 main 374 344 P_____P_P___P_ SH211993 -21.1423 160.590 92 2 -20.8771 160.403 40 85 955 -21.1423 160.460 85 945 -21.1423 160.590 TC 92 10 141
1993053S12161 1993 15 SP MM POLLY 1993-03-01 06:00:00 TS -21.4933 160.933 main 348 315 O_____O_O___O_ jtwc_sh SH211993 -21.5000 161.000 90 2 -21.2000 160.800 40 85 955 5.00000 4 -21.7000 160.900 85 945 -21.5000 161.000 TC 90 119 119 12 131
1993053S12161 1993 15 SP MM POLLY 1993-03-01 09:00:00 TS -21.8864 161.504 main 315 282 P_____P_P___P_ SH211993 -21.8773 161.533 90 2 -21.6960 161.431 40 85 955 -21.9999 161.484 85 945 -21.8773 161.533 TC 90 14 124
1993053S12161 1993 15 SP MM POLLY 1993-03-01 12:00:00 TS -22.3000 162.200 main 282 252 O_____O_O___O_ jtwc_sh SH211993 -22.3000 162.200 90 2 -22.3000 162.200 40 86 955 5.00000 4 -22.3000 162.200 85 945 -22.3000 162.200 TC 90 119 119 16 124
1993053S12161 1993 15 SP MM POLLY 1993-03-01 15:00:00 TS -22.7815 162.960 main 250 236 P_______P___P_ SH211993 -22.7623 162.956 90 2 40 -22.8198 162.970 85 945 -22.7623 162.956 TC 90 18 125
1993053S12161 1993 15 SP MM POLLY 1993-03-01 18:00:00 TS -23.3333 163.800 main 240 240 O_______O___O_ jtwc_sh SH211993 -23.3000 163.800 90 2 -23.4000 163.800 85 945 -23.3000 163.800 TC 90 19 126
1993053S12161 1993 15 SP MM POLLY 1993-03-01 21:00:00 TS -23.9075 164.645 main 253 246 P_______P___P_ SH211993 -23.9270 164.671 87 2 -23.8687 164.592 85 945 -23.9270 164.671 TC 87 20 127
1993053S12161 1993 15 SP MM POLLY 1993-03-02 00:00:00 TS -24.5333 165.567 main 259 259 O_______O___O_ jtwc_sh SH211993 -24.6000 165.600 85 2 -24.4000 165.500 85 945 -24.6000 165.600 TC 85 22 126
1993053S12161 1993 15 SP MM POLLY 1993-03-02 03:00:00 TS -25.1866 166.609 main 313 312 P_______P___P_ SH211993 -25.2420 166.579 82 1 -25.0758 166.670 85 945 -25.2420 166.579 TC 82 24 125
1993053S12161 1993 15 SP MM POLLY 1993-03-02 06:00:00 TS -25.9000 167.700 85 945 wellington main 399 399 O_______O___O_ jtwc_sh SH211993 -25.9000 167.600 80 1 -25.9000 167.900 85 945 -25.9000 167.600 TC 80 25 128
1993053S12161 1993 15 SP MM POLLY 1993-03-02 09:00:00 TS -26.6993 168.760 main 517 517 P_______P___P_ SH211993 -26.5846 168.651 77 1 -26.9288 168.979 82 950 -26.5846 168.651 TC 77 25 130
1993053S12161 1993 15 SP MM POLLY 1993-03-02 12:00:00 TS -27.5000 169.800 80 955 wellington main 640 640 O_______O___O_ jtwc_sh SH211993 -27.3000 169.700 75 1 -27.9000 170.000 80 955 -27.3000 169.700 TC 75 24 129
1993053S12161 1993 15 SP MM POLLY 1993-03-02 15:00:00 TS -28.2107 170.853 main 721 640 P_______P___P_ SH211993 -28.0496 170.731 70 1 -28.5330 171.099 72 962 -28.0496 170.731 TC 70 22 128
1993053S12161 1993 15 SP MM POLLY 1993-03-02 18:00:00 TS -28.8667 171.800 65 970 wellington main 629 557 O_______O___O_ jtwc_sh SH211993 -28.8000 171.700 65 1 -29.0000 172.000 65 970 -28.8000 171.700 TC 65 20 132
1993053S12161 1993 15 SP MM POLLY 1993-03-02 21:00:00 TS -29.5246 172.534 main 557 491 P_______P___P_ SH211993 -29.5517 172.588 60 0 -29.4703 172.425 60 975 -29.5517 172.588 TC 60 17 135
1993053S12161 1993 15 SP MM POLLY 1993-03-03 00:00:00 TS -30.1000 173.200 55 980 wellington main 491 452 O_______O___O_ jtwc_sh SH211993 -30.2000 173.400 55 0 -29.9000 172.800 55 980 -30.2000 173.400 TC 55 16 129
1993053S12161 1993 15 SP MM POLLY 1993-03-03 03:00:00 TS -30.5445 173.964 main 455 431 P_______P___P_ SH211993 -30.6591 174.159 50 0 -30.3154 173.575 52 982 -30.6591 174.159 TC 50 16 121
1993053S12161 1993 15 SP MM POLLY 1993-03-03 06:00:00 TS -30.9000 174.767 50 985 wellington main 435 426 O_______O___O_ jtwc_sh SH211993 -31.0000 174.900 45 0 -30.7000 174.500 50 985 -31.0000 174.900 TC 45 16 116
1993053S12161 1993 15 SP MM POLLY 1993-03-03 09:00:00 TS -31.2362 175.591 main 440 431 P_______P___P_ SH211993 -31.3220 175.686 40 0 -31.0647 175.400 47 986 -31.3220 175.686 TC 40 16 114
1993053S12161 1993 15 SP MM POLLY 1993-03-03 12:00:00 TS -31.5333 176.433 45 987 wellington main 458 453 O_______O___O_ jtwc_sh SH211993 -31.6000 176.500 35 0 -31.4000 176.300 45 987 -31.6000 176.500 TC 35 16 112
1993053S12161 1993 15 SP MM POLLY 1993-03-03 15:00:00 TS -31.8097 177.291 main 478 475 P_______P___P_ SH211993 -31.8646 177.343 35 0 -31.6998 177.188 42 988 -31.8646 177.343 TC 35 15 110
1993053S12161 1993 15 SP MM POLLY 1993-03-03 18:00:00 TS -32.0600 178.120 40 990 wellington main 500 500 O_______O___O_ jtwc_sh SH211993 -32.1000 178.200 35 0 -32.0000 178.000 40 990 -32.1000 178.200 TC 35 15 111
1993053S12161 1993 15 SP MM POLLY 1993-03-03 21:00:00 TS -32.3404 178.896 main 539 532 P_______P___P_ SH211993 -32.3086 179.052 35 0 -32.3723 178.740 40 990 -32.3086 179.052 TC 35 13 116
1993053S12161 1993 15 SP MM POLLY 1993-03-04 00:00:00 TS -32.6333 179.500 40 990 wellington main 563 547 O_______O___O_ jtwc_sh SH211993 -32.5000 179.900 35 0 -32.7000 179.300 40 990 -32.5000 179.900 TC 35 8 130
1993053S12161 1993 15 SP MM POLLY 1993-03-04 03:00:00 NR -32.8569 179.626 main 536 530 ________P_____ SH211993 -1 -32.8569 179.626 37 992 TC 4 145
1993053S12161 1993 15 SP MM POLLY 1993-03-04 06:00:00 NR -33.0000 179.800 35 995 wellington main 530 511 ________O_____ -1 -33.0000 179.800 35 995 5 143
1993053S12161 1993 15 SP MM POLLY 1993-03-04 09:00:00 NR -33.2399 179.965 main 513 474 ________P_____ -1 -33.2399 179.965 32 996 7 157
1993053S12161 1993 15 SP MM POLLY 1993-03-04 12:00:00 NR -33.6000 180.100 30 997 wellington main 474 436 ________O_____ -1 -33.6000 -179.900 30 997 9 163
1993053S12161 1993 15 SP MM POLLY 1993-03-04 15:00:00 NR -34.0601 180.265 main 429 371 ________P_____ -1 -34.0601 -179.735 30 997 11 167
1993053S12161 1993 15 SP MM POLLY 1993-03-04 18:00:00 NR -34.7000 180.400 30 997 wellington main 371 297 ________O_____ -1 -34.7000 -179.600 30 997 15 174
1993053S12161 1993 15 SP MM POLLY 1993-03-04 21:00:00 NR -35.5925 180.465 main 288 214 ________P_____ -1 -35.5925 -179.535 30 997 18 177
1993053S12161 1993 15 SP MM POLLY 1993-03-05 00:00:00 NR -36.5000 180.500 30 997 wellington main 214 180 ________O_____ -1 -36.5000 -179.500 30 997 16 177
1993053S12161 1993 15 SP MM POLLY 1993-03-05 03:00:00 NR -37.1375 180.550 main 188 175 ________P_____ -1 -37.1375 -179.450 30 997 12 176
1993053S12161 1993 15 SP MM POLLY 1993-03-05 06:00:00 NR -37.7000 180.600 30 997 wellington main 175 175 ________O_____ -1 -37.7000 -179.400 30 997 12 177
1993053S12161 1993 15 SP MM POLLY 1993-03-05 09:00:00 NR -38.3725 180.643 main 191 191 ________P_____ -1 -38.3725 -179.357 30 997 13 176
1993053S12161 1993 15 SP MM POLLY 1993-03-05 12:00:00 NR -39.0000 180.700 30 997 wellington main 214 214 ________O_____ -1 -39.0000 -179.300 30 997 11 175
1993053S12161 1993 15 SP MM POLLY 1993-03-05 15:00:00 NR -39.4799 180.770 main 242 242 ________P_____ -1 -39.4799 -179.230 30 997 9 170
1993053S12161 1993 15 SP MM POLLY 1993-03-05 18:00:00 NR -39.9000 180.900 30 997 wellington main 263 263 ________O_____ -1 -39.9000 -179.100 30 997 9 163
1993053S12161 1993 15 SP MM POLLY 1993-03-05 21:00:00 NR -40.3049 181.106 main 294 294 ________P_____ -1 -40.3049 -178.894 30 997 10 157
1993053S12161 1993 15 SP MM POLLY 1993-03-06 00:00:00 NR -40.8000 181.400 30 997 wellington main 340 340 ________O_____ -1 -40.8000 -178.600 30 997 13 157
1993053S12161 1993 15 SP MM POLLY 1993-03-06 03:00:00 NR -41.5126 181.777 main 410 410 ________P_____ -1 -41.5126 -178.223 30 997 16 158
1993053S12161 1993 15 SP MM POLLY 1993-03-06 06:00:00 NR -42.3000 182.200 30 997 wellington main 491 491 ________O_____ -1 -42.3000 -177.800 30 997 16 157
1993053S12161 1993 15 SP MM POLLY 1993-03-06 09:00:00 NR -42.9849 182.602 main 568 568 ________P_____ -1 -42.9849 -177.398 30 997 15 157
1993053S12161 1993 15 SP MM POLLY 1993-03-06 12:00:00 NR -43.7000 183.000 30 997 wellington main 634 634 ________O_____ -1 -43.7000 -177.000 30 997 17 160
1993053S12161 1993 15 SP MM POLLY 1993-03-06 15:00:00 NR -44.5875 183.414 main 709 709 ________P_____ -1 -44.5875 -176.586 30 997 18 161
1993053S12161 1993 15 SP MM POLLY 1993-03-06 18:00:00 NR -45.4000 183.800 30 997 wellington main 782 782 ________O_____ -1 -45.4000 -176.200 30 997 14 159
1993053S12161 1993 15 SP MM POLLY 1993-03-06 21:00:00 NR -45.9023 184.124 main 833 833 ________P_____ -1 -45.9023 -175.876 30 997 10 155
1993053S12161 1993 15 SP MM POLLY 1993-03-07 00:00:00 NR -46.3000 184.400 30 997 wellington main 878 878 ________O_____ -1 -46.3000 -175.600 30 997 10 157
1993053S12161 1993 15 SP MM POLLY 1993-03-07 03:00:00 NR -46.8000 184.673 main 930 930 ________P_____ -1 -46.8000 -175.327 30 997 11 161
1993053S12161 1993 15 SP MM POLLY 1993-03-07 06:00:00 NR -47.3000 184.900 30 997 wellington main 977 977 ________O_____ -1 -47.3000 -175.100 30 997 10 165
1993053S12161 1993 15 SP MM POLLY 1993-03-07 09:00:00 NR -47.7649 185.066 main 1020 1020 ________P_____ -1 -47.7649 -174.934 30 997 9 167
1993053S12161 1993 15 SP MM POLLY 1993-03-07 12:00:00 NR -48.2000 185.200 30 997 wellington main 1043 1043 ________O_____ -1 -48.2000 -174.800 30 997 10 174
1993053S12161 1993 15 SP MM POLLY 1993-03-07 15:00:00 NR -48.7409 185.220 main 1066 1066 ________P_____ -1 -48.7409 -174.780 30 997 8 166
1993053S12161 1993 15 SP MM POLLY 1993-03-07 18:00:00 NR -49.0000 185.500 30 997 wellington main 1100 1100 ________O_____ -1 -49.0000 -174.500 30 997 8 83
1993053S12161 1993 15 SP MM POLLY 1993-03-07 21:00:00 NR -48.6426 186.419 main 1142 1142 ________P_____ -1 -48.6426 -173.581 30 997 17 53
1993053S12161 1993 15 SP MM POLLY 1993-03-08 00:00:00 NR -48.0000 187.500 30 997 wellington main 1178 1178 ________O_____ -1 -48.0000 -172.500 30 997 16 49
1993053S12161 1993 15 SP MM POLLY 1993-03-08 03:00:00 NR -47.6134 188.202 main 1196 1196 ________P_____ -1 -47.6134 -171.798 30 997 11 48
1993053S12161 1993 15 SP MM POLLY 1993-03-08 06:00:00 NR -47.2577 188.723 main 1212 1206 ________P_____ -1 -47.2577 -171.277 30 997 10 40
1993053S12161 1993 15 SP MM POLLY 1993-03-08 09:00:00 NR -46.8485 189.134 main 1213 1213 ________P_____ -1 -46.8485 -170.866 30 997 11 29
1993053S12161 1993 15 SP MM POLLY 1993-03-08 12:00:00 NR -46.3000 189.500 30 997 wellington main 1217 1196 ________O_____ -1 -46.3000 -170.500 30 997 14 21
1993053S12161 1993 15 SP MM POLLY 1993-03-08 15:00:00 NR -45.5492 189.872 main 1197 1175 ________P_____ -1 -45.5492 -170.128 30 997 18 17
1993053S12161 1993 15 SP MM POLLY 1993-03-08 18:00:00 NR -44.6279 190.252 main 1177 1157 ________P_____ -1 -44.6279 -169.748 30 997 20 15
1993053S12161 1993 15 SP MM POLLY 1993-03-08 21:00:00 NR -43.5925 190.630 main 1156 1149 ________P_____ -1 -43.5925 -169.370 30 997 22 14
1993053S12161 1993 15 SP MM POLLY 1993-03-09 00:00:00 NR -42.5000 191.000 30 997 wellington main 1152 ________O_____ -1 -42.5000 -169.000 30 997 23 14

Digital Typhoon Data and Search

About IBTrACS Database

This database is a web-friendly format of International Best Track Archive for Climate Stewardship (IBTrACS), a global best track data archive curated by NOAA dating back to 1842.

Updated: 2021-10-21